createdAt,value
2019-02-02T00:00:44.469Z,2.90
2019-02-02T00:03:13.440Z,2.90
2019-02-02T00:05:42.379Z,2.80
2019-02-02T00:08:11.582Z,2.90
2019-02-02T00:10:40.634Z,2.90
2019-02-02T00:13:09.600Z,2.90
2019-02-02T00:15:38.628Z,2.90
2019-02-02T00:18:07.991Z,2.90
2019-02-02T00:20:36.790Z,2.90
2019-02-02T00:23:06.080Z,2.80
2019-02-02T00:25:35.431Z,2.80
2019-02-02T00:28:04.597Z,2.70
2019-02-02T00:30:33.644Z,2.70
2019-02-02T00:33:02.574Z,2.60
2019-02-02T00:35:31.314Z,2.60
2019-02-02T00:38:00.128Z,2.70
2019-02-02T00:40:29.192Z,2.70
2019-02-02T00:42:58.109Z,2.80
2019-02-02T00:45:26.922Z,2.80
2019-02-02T00:47:55.998Z,2.80
2019-02-02T00:50:25.044Z,2.80
2019-02-02T00:52:54.045Z,2.80
2019-02-02T00:55:42.006Z,2.80
2019-02-02T00:58:14.126Z,2.80
2019-02-02T01:00:43.855Z,2.80
2019-02-02T01:03:12.633Z,2.80
2019-02-02T01:05:41.485Z,2.70
2019-02-02T01:08:10.289Z,2.70
2019-02-02T01:10:39.780Z,2.60
2019-02-02T01:13:08.873Z,2.50
2019-02-02T01:15:37.813Z,2.50
2019-02-02T01:18:06.646Z,2.40
2019-02-02T01:20:35.768Z,2.40
2019-02-02T01:23:05.321Z,2.40
2019-02-02T01:25:34.041Z,2.40
2019-02-02T01:28:05.318Z,2.50
2019-02-02T01:30:33.457Z,2.60
2019-02-02T01:33:02.301Z,2.60
2019-02-02T01:35:31.203Z,2.60
2019-02-02T01:38:00.306Z,2.70
2019-02-02T01:40:29.204Z,2.70
2019-02-02T01:42:58.009Z,2.80
2019-02-02T01:45:27.008Z,2.80
2019-02-02T01:47:57.748Z,2.80
2019-02-02T01:50:26.752Z,2.80
2019-02-02T01:52:55.636Z,2.80
2019-02-02T01:55:24.530Z,2.90
2019-02-02T01:57:53.685Z,2.90
2019-02-02T02:00:24.720Z,2.90
2019-02-02T02:02:53.531Z,2.90
2019-02-02T02:05:23.209Z,3.00
2019-02-02T02:07:52.330Z,3.00
2019-02-02T02:10:21.602Z,3.00
2019-02-02T02:12:50.497Z,3.00
2019-02-02T02:15:19.909Z,3.00
2019-02-02T02:18:08.248Z,3.00
2019-02-02T02:20:37.081Z,3.00
2019-02-02T02:23:06.209Z,3.00
2019-02-02T02:25:34.942Z,2.90
2019-02-02T02:28:03.774Z,2.90
2019-02-02T02:30:32.512Z,2.80
2019-02-02T02:33:01.699Z,2.80
2019-02-02T02:35:30.933Z,2.70
2019-02-02T02:37:59.786Z,2.70
2019-02-02T02:40:28.622Z,2.60
2019-02-02T02:42:57.841Z,2.60
2019-02-02T02:45:27.417Z,2.50
2019-02-02T02:47:56.425Z,2.50
2019-02-02T02:50:25.237Z,2.50
2019-02-02T02:52:54.253Z,2.60
2019-02-02T02:55:23.526Z,2.60
2019-02-02T02:57:52.254Z,2.50
2019-02-02T03:00:27.686Z,2.40
2019-02-02T03:02:56.571Z,2.50
2019-02-02T03:05:25.828Z,2.50
2019-02-02T03:07:54.831Z,2.50
2019-02-02T03:10:24.318Z,2.60
2019-02-02T03:12:54.049Z,2.60
2019-02-02T03:15:23.243Z,2.60
2019-02-02T03:17:52.917Z,2.70
2019-02-02T03:20:22.062Z,2.70
2019-02-02T03:22:51.176Z,2.70
2019-02-02T03:25:22.022Z,2.70
2019-02-02T03:27:51.107Z,2.70
2019-02-02T03:30:21.088Z,2.70
2019-02-02T03:32:50.830Z,2.70
2019-02-02T03:35:21.433Z,2.70
2019-02-02T03:37:50.659Z,2.70
2019-02-02T03:40:20.783Z,2.70
2019-02-02T03:42:49.667Z,2.70
2019-02-02T03:45:20.787Z,2.70
2019-02-02T03:47:50.974Z,2.70
2019-02-02T03:50:19.738Z,2.70
2019-02-02T03:52:48.570Z,2.70
2019-02-02T03:55:38.173Z,2.70
2019-02-02T03:58:07.455Z,2.70
2019-02-02T04:00:36.456Z,2.70
2019-02-02T04:03:05.583Z,2.70
2019-02-02T04:05:34.597Z,2.70
2019-02-02T04:08:03.641Z,2.70
2019-02-02T04:10:32.679Z,2.70
2019-02-02T04:13:01.749Z,2.80
2019-02-02T04:15:30.738Z,2.80
2019-02-02T04:17:59.479Z,2.80
2019-02-02T04:20:31.493Z,2.80
2019-02-02T04:23:00.211Z,2.80
2019-02-02T04:25:29.028Z,2.80
2019-02-02T04:27:58.030Z,2.90
2019-02-02T04:30:27.261Z,2.90
2019-02-02T04:32:57.006Z,2.90
2019-02-02T04:35:25.983Z,2.90
2019-02-02T04:37:55.081Z,2.90
2019-02-02T04:40:24.054Z,2.90
2019-02-02T04:42:52.845Z,2.90
2019-02-02T04:45:41.333Z,2.90
2019-02-02T04:48:10.508Z,2.90
2019-02-02T04:50:39.801Z,3.00
2019-02-02T04:53:27.785Z,3.00
2019-02-02T04:55:56.585Z,3.00
2019-02-02T04:58:27.724Z,3.00
2019-02-02T05:00:56.711Z,3.00
2019-02-02T05:03:25.532Z,3.00
2019-02-02T05:05:54.241Z,3.00
2019-02-02T05:08:23.289Z,3.00
2019-02-02T05:10:52.282Z,3.00
2019-02-02T05:13:21.025Z,3.00
2019-02-02T05:15:51.222Z,2.90
2019-02-02T05:18:19.940Z,2.90
2019-02-02T05:20:48.917Z,2.90
2019-02-02T05:23:17.689Z,2.80
2019-02-02T05:25:46.412Z,2.70
2019-02-02T05:28:15.194Z,2.60
2019-02-02T05:30:44.219Z,2.50
2019-02-02T05:33:13.033Z,2.50
2019-02-02T05:35:42.130Z,2.50
2019-02-02T05:38:11.264Z,2.40
2019-02-02T05:40:40.247Z,2.50
2019-02-02T05:43:09.282Z,2.50
2019-02-02T05:45:39.354Z,2.60
2019-02-02T05:48:08.542Z,2.60
2019-02-02T05:50:37.857Z,2.70
2019-02-02T05:53:06.577Z,2.70
2019-02-02T05:55:35.633Z,2.70
2019-02-02T05:58:04.760Z,2.70
2019-02-02T06:00:55.678Z,2.70
2019-02-02T06:03:24.422Z,2.70
2019-02-02T06:05:53.209Z,2.70
2019-02-02T06:08:22.118Z,2.70
2019-02-02T06:10:51.154Z,2.70
2019-02-02T06:13:20.462Z,2.70
2019-02-02T06:15:49.466Z,2.70
2019-02-02T06:18:18.515Z,2.70
2019-02-02T06:20:47.495Z,2.70
2019-02-02T06:23:16.741Z,2.80
2019-02-02T06:25:47.400Z,2.80
2019-02-02T06:28:16.425Z,2.80
2019-02-02T06:30:45.165Z,2.90
2019-02-02T06:33:14.205Z,2.90
2019-02-02T06:35:43.105Z,2.90
2019-02-02T06:38:11.955Z,2.90
2019-02-02T06:40:41.001Z,2.90
2019-02-02T06:43:10.190Z,2.90
2019-02-02T06:45:39.581Z,2.90
2019-02-02T06:48:08.523Z,2.90
2019-02-02T06:50:37.299Z,2.90
2019-02-02T06:53:06.754Z,3.00
2019-02-02T06:55:35.721Z,3.00
2019-02-02T06:58:05.550Z,3.00
2019-02-02T07:00:34.629Z,3.00
2019-02-02T07:03:04.751Z,3.00
2019-02-02T07:05:34.103Z,3.00
2019-02-02T07:08:03.082Z,3.00
2019-02-02T07:10:31.810Z,3.00
2019-02-02T07:13:03.174Z,3.00
2019-02-02T07:15:32.143Z,3.00
2019-02-02T07:18:01.353Z,3.00
2019-02-02T07:20:30.719Z,3.00
2019-02-02T07:22:59.718Z,3.00
2019-02-02T07:25:28.765Z,3.00
2019-02-02T07:27:57.873Z,3.00
2019-02-02T07:30:29.522Z,3.00
2019-02-02T07:32:57.324Z,2.90
2019-02-02T07:35:26.366Z,2.90
2019-02-02T07:37:55.529Z,2.80
2019-02-02T07:40:24.641Z,2.80
2019-02-02T07:42:53.962Z,2.80
2019-02-02T07:45:28.109Z,2.70
2019-02-02T07:47:57.349Z,2.70
2019-02-02T07:50:26.458Z,2.70
2019-02-02T07:52:55.569Z,2.70
2019-02-02T07:55:24.568Z,2.70
2019-02-02T07:57:53.436Z,2.70
2019-02-02T08:00:25.138Z,2.70
2019-02-02T08:02:54.560Z,2.70
2019-02-02T08:05:23.529Z,2.70
2019-02-02T08:07:52.609Z,2.80
2019-02-02T08:10:21.499Z,2.80
2019-02-02T08:12:50.454Z,2.80
2019-02-02T08:15:22.179Z,2.80
2019-02-02T08:17:51.463Z,2.80
2019-02-02T08:20:20.287Z,2.90
2019-02-02T08:22:49.438Z,2.90
2019-02-02T08:25:18.302Z,2.90
2019-02-02T08:27:47.370Z,2.90
2019-02-02T08:30:18.576Z,2.90
2019-02-02T08:32:47.716Z,2.90
2019-02-02T08:35:16.588Z,2.90
2019-02-02T08:37:46.557Z,2.90
2019-02-02T08:40:16.016Z,3.00
2019-02-02T08:42:44.770Z,3.00
2019-02-02T08:45:14.828Z,3.00
2019-02-02T08:47:43.950Z,3.00
2019-02-02T08:50:18.304Z,3.00
2019-02-02T08:52:47.813Z,3.10
2019-02-02T08:55:16.944Z,3.10
2019-02-02T08:57:46.046Z,3.00
2019-02-02T09:00:17.082Z,3.00
2019-02-02T09:02:46.321Z,3.10
2019-02-02T09:05:17.373Z,3.10
2019-02-02T09:07:46.211Z,3.10
2019-02-02T09:10:20.008Z,3.10
2019-02-02T09:12:49.011Z,3.10
2019-02-02T09:15:18.412Z,3.20
2019-02-02T09:17:47.413Z,3.20
2019-02-02T09:20:16.982Z,3.20
2019-02-02T09:22:46.451Z,3.20
2019-02-02T09:25:16.193Z,3.20
2019-02-02T09:27:45.336Z,3.10
2019-02-02T09:30:22.568Z,3.10
2019-02-02T09:32:51.646Z,3.00
2019-02-02T09:35:20.701Z,2.90
2019-02-02T09:37:49.840Z,2.80
2019-02-02T09:40:20.703Z,2.80
2019-02-02T09:42:49.837Z,2.70
2019-02-02T09:45:20.096Z,2.60
2019-02-02T09:47:49.964Z,2.60
2019-02-02T09:50:20.646Z,2.60
2019-02-02T09:52:49.928Z,2.50
2019-02-02T09:55:20.844Z,2.40
2019-02-02T09:57:55.017Z,2.40
2019-02-02T10:00:30.089Z,2.30
2019-02-02T10:02:59.229Z,2.20
2019-02-02T10:05:28.807Z,2.30
2019-02-02T10:07:58.287Z,2.30
2019-02-02T10:10:30.456Z,2.40
2019-02-02T10:12:59.909Z,2.40
2019-02-02T10:15:29.777Z,2.50
2019-02-02T10:17:58.760Z,2.50
2019-02-02T10:20:28.673Z,2.50
2019-02-02T10:22:58.193Z,2.50
2019-02-02T10:25:28.653Z,2.50
2019-02-02T10:27:57.561Z,2.50
2019-02-02T10:30:29.107Z,2.50
2019-02-02T10:32:58.202Z,2.50
2019-02-02T10:35:27.316Z,2.60
2019-02-02T10:37:56.241Z,2.60
2019-02-02T10:40:25.968Z,2.60
2019-02-02T10:42:54.869Z,2.60
2019-02-02T10:45:24.091Z,2.60
2019-02-02T10:47:53.105Z,2.60
2019-02-02T10:50:22.007Z,2.60
2019-02-02T10:52:51.787Z,2.60
2019-02-02T10:55:20.844Z,2.60
2019-02-02T10:57:50.082Z,2.60
2019-02-02T11:00:23.981Z,2.70
2019-02-02T11:02:53.104Z,2.60
2019-02-02T11:05:24.303Z,2.60
2019-02-02T11:07:54.485Z,2.60
2019-02-02T11:10:26.235Z,2.70
2019-02-02T11:12:55.293Z,2.80
2019-02-02T11:15:24.500Z,2.80
2019-02-02T11:17:53.895Z,2.90
2019-02-02T11:20:25.189Z,3.00
2019-02-02T11:22:55.724Z,3.10
2019-02-02T11:25:24.940Z,3.20
2019-02-02T11:27:54.052Z,3.20
2019-02-02T11:30:25.029Z,3.30
2019-02-02T11:32:54.986Z,3.30
2019-02-02T11:35:24.110Z,3.40
2019-02-02T11:37:53.243Z,3.30
2019-02-02T11:40:24.375Z,3.30
2019-02-02T11:42:53.372Z,3.30
2019-02-02T11:45:22.622Z,3.20
2019-02-02T11:47:52.189Z,3.30
2019-02-02T11:50:21.377Z,3.30
2019-02-02T11:52:50.500Z,3.30
2019-02-02T11:55:19.542Z,3.20
2019-02-02T11:57:50.013Z,3.20
2019-02-02T12:00:22.051Z,3.30
2019-02-02T12:02:50.879Z,3.30
2019-02-02T12:05:20.888Z,3.30
2019-02-02T12:07:49.725Z,3.40
2019-02-02T12:10:20.083Z,3.30
2019-02-02T12:12:48.958Z,3.40
2019-02-02T12:15:18.427Z,3.40
2019-02-02T12:17:47.758Z,3.40
2019-02-02T12:20:17.654Z,3.40
2019-02-02T12:22:47.101Z,3.30
2019-02-02T12:25:15.992Z,3.30
2019-02-02T12:27:44.884Z,3.30
2019-02-02T12:30:18.728Z,3.30
2019-02-02T12:32:48.045Z,3.40
2019-02-02T12:35:19.445Z,3.30
2019-02-02T12:37:48.540Z,3.30
2019-02-02T12:40:17.958Z,3.40
2019-02-02T12:42:47.357Z,3.30
2019-02-02T12:45:22.095Z,3.30
2019-02-02T12:47:51.569Z,3.30
2019-02-02T12:50:22.077Z,3.30
2019-02-02T12:52:51.239Z,3.30
2019-02-02T12:55:20.289Z,3.30
2019-02-02T12:57:49.325Z,3.50
2019-02-02T13:00:19.107Z,3.50
2019-02-02T13:02:49.028Z,3.40
2019-02-02T13:05:19.381Z,3.30
2019-02-02T13:07:48.853Z,3.40
2019-02-02T13:10:20.381Z,3.40
2019-02-02T13:12:49.081Z,3.40
2019-02-02T13:15:17.966Z,3.50
2019-02-02T13:17:46.988Z,3.60
2019-02-02T13:20:16.009Z,3.70
2019-02-02T13:22:44.877Z,3.70
2019-02-02T13:25:16.090Z,3.70
2019-02-02T13:27:45.430Z,3.80
2019-02-02T13:30:18.789Z,3.80
2019-02-02T13:32:49.981Z,3.70
2019-02-02T13:35:19.365Z,3.70
2019-02-02T13:37:48.429Z,3.70
2019-02-02T13:40:18.642Z,3.70
2019-02-02T13:42:47.685Z,3.70
2019-02-02T13:45:17.602Z,3.70
2019-02-02T13:47:52.581Z,3.70
2019-02-02T13:50:21.560Z,3.70
2019-02-02T13:52:50.789Z,3.50
2019-02-02T13:55:19.990Z,3.50
2019-02-02T13:57:49.549Z,3.50
2019-02-02T14:00:26.744Z,3.50
2019-02-02T14:03:02.897Z,3.50
2019-02-02T14:05:26.743Z,3.50
2019-02-02T14:07:56.114Z,3.40
2019-02-02T14:10:26.917Z,3.50
2019-02-02T14:12:55.780Z,3.60
2019-02-02T14:15:24.666Z,3.60
2019-02-02T14:18:13.194Z,3.70
2019-02-02T14:20:42.193Z,3.80
2019-02-02T14:23:10.933Z,3.80
2019-02-02T14:25:40.406Z,3.90
2019-02-02T14:28:09.499Z,3.90
2019-02-02T14:30:38.652Z,3.90
2019-02-02T14:33:14.131Z,3.90
2019-02-02T14:35:39.904Z,4.00
2019-02-02T14:38:09.578Z,4.00
2019-02-02T14:40:38.861Z,4.00
2019-02-02T14:43:10.844Z,4.00
2019-02-02T14:45:40.918Z,4.00
2019-02-02T14:48:09.989Z,3.90
2019-02-02T14:50:38.709Z,3.90
2019-02-02T14:53:07.532Z,3.80
2019-02-02T14:55:36.244Z,3.90
2019-02-02T14:58:05.735Z,3.90
2019-02-02T15:00:34.914Z,4.00
2019-02-02T15:03:04.126Z,4.10
2019-02-02T15:05:42.708Z,4.10
2019-02-02T15:08:03.901Z,4.20
2019-02-02T15:10:32.950Z,4.20
2019-02-02T15:13:01.946Z,4.20
2019-02-02T15:15:30.931Z,4.10
2019-02-02T15:18:00.269Z,4.00
2019-02-02T15:20:34.488Z,4.00
2019-02-02T15:23:03.637Z,4.00
2019-02-02T15:25:32.958Z,4.00
2019-02-02T15:28:02.111Z,3.90
2019-02-02T15:30:31.068Z,3.80
2019-02-02T15:33:00.173Z,3.80
2019-02-02T15:35:29.113Z,3.80
2019-02-02T15:37:59.174Z,3.70
2019-02-02T15:40:31.353Z,3.70
2019-02-02T15:43:00.749Z,3.60
2019-02-02T15:45:29.850Z,3.60
2019-02-02T15:47:58.905Z,3.60
2019-02-02T15:50:27.952Z,3.50
2019-02-02T15:52:56.790Z,3.50
2019-02-02T15:55:45.023Z,3.40
2019-02-02T15:58:14.717Z,3.40
2019-02-02T16:00:43.671Z,3.40
2019-02-02T16:03:13.411Z,3.40
2019-02-02T16:05:42.845Z,3.30
2019-02-02T16:08:14.022Z,3.20
2019-02-02T16:10:43.088Z,3.20
2019-02-02T16:13:12.657Z,3.30
2019-02-02T16:15:41.993Z,3.20
2019-02-02T16:18:11.201Z,3.30
2019-02-02T16:20:42.529Z,3.20
2019-02-02T16:23:12.399Z,3.30
2019-02-02T16:25:44.298Z,3.30
2019-02-02T16:28:13.131Z,3.30
2019-02-02T16:30:41.895Z,3.30
2019-02-02T16:33:11.110Z,3.20
2019-02-02T16:35:40.069Z,3.20
2019-02-02T16:38:09.910Z,3.20
2019-02-02T16:40:39.220Z,3.20
2019-02-02T16:43:08.514Z,3.10
2019-02-02T16:45:37.775Z,3.00
2019-02-02T16:48:07.124Z,3.00
2019-02-02T16:50:36.024Z,3.00
2019-02-02T16:53:05.627Z,2.90
2019-02-02T16:55:37.313Z,2.90
2019-02-02T16:58:06.255Z,2.90
2019-02-02T17:00:36.113Z,2.90
2019-02-02T17:03:05.244Z,2.80
2019-02-02T17:05:34.265Z,2.80
2019-02-02T17:08:03.423Z,2.80
2019-02-02T17:10:35.064Z,2.70
2019-02-02T17:13:07.594Z,2.70
2019-02-02T17:15:36.621Z,2.70
2019-02-02T17:18:08.408Z,2.70
2019-02-02T17:20:43.093Z,2.60
2019-02-02T17:23:13.823Z,2.50
2019-02-02T17:25:42.796Z,2.40
2019-02-02T17:28:11.940Z,2.40
2019-02-02T17:30:40.962Z,2.40
2019-02-02T17:33:12.369Z,2.40
2019-02-02T17:35:41.281Z,2.40
2019-02-02T17:38:10.285Z,2.50
2019-02-02T17:40:39.686Z,2.50
2019-02-02T17:43:09.652Z,2.40
2019-02-02T17:45:38.625Z,2.40
2019-02-02T17:48:12.994Z,2.40
2019-02-02T17:50:41.756Z,2.40
2019-02-02T17:53:10.537Z,2.40
2019-02-02T17:55:39.501Z,2.40
2019-02-02T17:58:08.556Z,2.40
2019-02-02T18:00:54.266Z,2.40
2019-02-02T18:03:23.767Z,2.40
2019-02-02T18:05:55.893Z,2.40
2019-02-02T18:08:26.982Z,2.40
2019-02-02T18:10:57.568Z,2.40
2019-02-02T18:13:26.602Z,2.50
2019-02-02T18:15:55.474Z,2.50
2019-02-02T18:18:24.461Z,2.50
2019-02-02T18:20:53.204Z,2.50
2019-02-02T18:23:23.990Z,2.50
2019-02-02T18:25:52.908Z,2.50
2019-02-02T18:28:21.664Z,2.50
2019-02-02T18:30:50.443Z,2.50
2019-02-02T18:33:19.705Z,2.50
2019-02-02T18:35:48.587Z,2.50
2019-02-02T18:38:17.617Z,2.50
2019-02-02T18:40:47.049Z,2.50
2019-02-02T18:43:16.025Z,2.50
2019-02-02T18:45:45.083Z,2.50
2019-02-02T18:48:14.054Z,2.40
2019-02-02T18:50:43.102Z,2.40
2019-02-02T18:53:12.252Z,2.40
2019-02-02T18:55:54.111Z,2.40
2019-02-02T18:58:22.856Z,2.30
2019-02-02T19:00:52.359Z,2.30
2019-02-02T19:03:21.594Z,2.30
2019-02-02T19:05:50.572Z,2.30
2019-02-02T19:08:19.345Z,2.30
2019-02-02T19:10:48.112Z,2.30
2019-02-02T19:13:16.988Z,2.30
2019-02-02T19:15:48.631Z,2.30
2019-02-02T19:18:17.558Z,2.30
2019-02-02T19:20:47.022Z,2.30
2019-02-02T19:23:24.600Z,2.40
2019-02-02T19:25:49.552Z,2.40
2019-02-02T19:28:18.957Z,2.40
2019-02-02T19:30:47.671Z,2.40
2019-02-02T19:33:16.716Z,2.40
2019-02-02T19:35:45.712Z,2.40
2019-02-02T19:38:14.421Z,2.40
2019-02-02T19:40:43.548Z,2.40
2019-02-02T19:43:12.388Z,2.40
2019-02-02T19:45:42.458Z,2.40
2019-02-02T19:48:11.563Z,2.30
2019-02-02T19:50:41.233Z,2.30
2019-02-02T19:53:10.766Z,2.30
2019-02-02T19:55:40.945Z,2.30
2019-02-02T19:58:13.534Z,2.30
2019-02-02T20:00:42.572Z,2.30
2019-02-02T20:03:11.547Z,2.30
2019-02-02T20:05:40.840Z,2.30
2019-02-02T20:08:12.130Z,2.40
2019-02-02T20:10:40.910Z,2.30
2019-02-02T20:13:09.649Z,2.40
2019-02-02T20:15:38.714Z,2.40
2019-02-02T20:18:10.199Z,2.40
2019-02-02T20:20:58.453Z,2.40
2019-02-02T20:23:28.009Z,2.40
2019-02-02T20:25:57.094Z,2.30
2019-02-02T20:28:27.180Z,2.40
2019-02-02T20:30:56.161Z,2.30
2019-02-02T20:33:25.028Z,2.30
2019-02-02T20:35:54.065Z,2.30
2019-02-02T20:38:22.924Z,2.30
2019-02-02T20:40:51.900Z,2.40
2019-02-02T20:43:21.245Z,2.40
2019-02-02T20:45:50.284Z,2.30
2019-02-02T20:48:19.050Z,2.40
2019-02-02T20:50:47.814Z,2.30
2019-02-02T20:53:36.636Z,2.30
2019-02-02T20:56:06.090Z,2.30
2019-02-02T20:58:34.891Z,2.30
2019-02-02T21:01:04.274Z,2.30
2019-02-02T21:03:36.371Z,2.30
2019-02-02T21:06:05.292Z,2.30
2019-02-02T21:08:34.287Z,2.30
2019-02-02T21:11:04.077Z,2.30
2019-02-02T21:13:33.554Z,2.30
2019-02-02T21:16:03.186Z,2.30
2019-02-02T21:18:31.926Z,2.20
2019-02-02T21:21:01.131Z,2.20
2019-02-02T21:23:30.833Z,2.20
2019-02-02T21:25:59.694Z,2.20
2019-02-02T21:28:28.940Z,2.20
2019-02-02T21:30:57.689Z,2.10
2019-02-02T21:33:27.407Z,2.10
2019-02-02T21:36:03.440Z,2.10
2019-02-02T21:38:27.340Z,2.10
2019-02-02T21:40:56.487Z,2.20
2019-02-02T21:43:25.762Z,2.20
2019-02-02T21:45:54.927Z,2.20
2019-02-02T21:48:24.542Z,2.20
2019-02-02T21:50:55.846Z,2.20
2019-02-02T21:53:25.519Z,2.20
2019-02-02T21:55:54.748Z,2.20
2019-02-02T21:58:23.966Z,2.20
2019-02-02T22:00:53.351Z,2.20
2019-02-02T22:03:22.685Z,2.20
2019-02-02T22:05:51.637Z,2.20
2019-02-02T22:08:40.772Z,2.20
2019-02-02T22:11:09.900Z,2.20
2019-02-02T22:13:40.297Z,2.20
2019-02-02T22:16:09.607Z,2.20
2019-02-02T22:18:39.512Z,2.20
2019-02-02T22:21:08.524Z,2.20
2019-02-02T22:23:37.783Z,2.20
2019-02-02T22:26:06.782Z,2.20
2019-02-02T22:28:35.998Z,2.10
2019-02-02T22:31:05.130Z,2.10
2019-02-02T22:33:34.220Z,2.10
2019-02-02T22:36:03.149Z,2.10
2019-02-02T22:38:32.708Z,2.10
2019-02-02T22:41:02.380Z,2.00
2019-02-02T22:43:31.414Z,2.00
2019-02-02T22:46:00.403Z,2.00
2019-02-02T22:48:29.773Z,1.90
2019-02-02T22:50:59.525Z,1.90
2019-02-02T22:53:28.708Z,1.90
2019-02-02T22:55:58.150Z,1.90
2019-02-02T22:58:29.133Z,1.80
2019-02-02T23:01:06.637Z,1.80
2019-02-02T23:03:39.250Z,1.80
2019-02-02T23:07:00.871Z,1.80
2019-02-02T23:10:03.235Z,1.90
2019-02-02T23:13:12.201Z,1.90
2019-02-02T23:16:13.284Z,1.90
2019-02-02T23:18:46.649Z,1.90
2019-02-02T23:21:14.077Z,1.90
2019-02-02T23:23:43.854Z,1.90
2019-02-02T23:26:12.946Z,1.80
2019-02-02T23:28:41.764Z,1.80
2019-02-02T23:31:10.573Z,1.80
2019-02-02T23:33:40.038Z,1.90
2019-02-02T23:36:09.010Z,1.90
2019-02-02T23:38:38.364Z,1.90
2019-02-02T23:41:07.405Z,1.90
2019-02-02T23:43:36.650Z,2.00
2019-02-02T23:46:05.795Z,2.00
2019-02-02T23:48:34.803Z,2.00
2019-02-02T23:51:03.781Z,2.00
2019-02-02T23:53:32.957Z,2.00
2019-02-02T23:56:01.941Z,2.00
2019-02-02T23:58:50.241Z,2.00
